createdAt,value
2019-03-30T00:02:03.117Z,18.00
2019-03-30T00:04:30.346Z,16.32
2019-03-30T00:06:57.659Z,16.55
2019-03-30T00:09:24.998Z,17.87
2019-03-30T00:11:52.223Z,18.12
2019-03-30T00:14:19.549Z,22.30
2019-03-30T00:16:46.758Z,19.70
2019-03-30T00:19:14.097Z,19.50
2019-03-30T00:21:41.418Z,23.10
2019-03-30T00:24:08.747Z,19.48
2019-03-30T00:26:35.994Z,19.77
2019-03-30T00:29:03.329Z,19.87
2019-03-30T00:31:30.542Z,22.50
2019-03-30T00:33:57.873Z,20.70
2019-03-30T00:36:25.085Z,18.37
2019-03-30T00:38:52.430Z,16.35
2019-03-30T00:41:19.730Z,14.30
2019-03-30T00:43:47.291Z,18.82
2019-03-30T00:46:14.671Z,14.90
2019-03-30T00:48:41.912Z,17.02
2019-03-30T00:51:09.256Z,17.52
2019-03-30T00:53:36.577Z,18.67
2019-03-30T00:56:03.929Z,18.12
2019-03-30T00:58:31.182Z,16.70
2019-03-30T01:00:58.500Z,18.65
2019-03-30T01:03:25.858Z,16.35
2019-03-30T01:05:53.204Z,16.70
2019-03-30T01:08:20.413Z,17.92
2019-03-30T01:10:47.766Z,17.20
2019-03-30T01:13:14.988Z,18.52
2019-03-30T01:15:42.209Z,17.82
2019-03-30T01:18:09.538Z,17.12
2019-03-30T01:20:36.879Z,16.30
2019-03-30T01:23:04.214Z,20.92
2019-03-30T01:25:31.452Z,19.02
2019-03-30T01:27:58.672Z,20.02
2019-03-30T01:30:26.036Z,18.57
2019-03-30T01:32:53.257Z,21.02
2019-03-30T01:35:20.774Z,20.62
2019-03-30T01:37:48.518Z,22.15
2019-03-30T01:40:15.872Z,24.60
2019-03-30T01:42:43.194Z,25.57
2019-03-30T01:45:10.724Z,22.87
2019-03-30T01:47:38.046Z,22.02
2019-03-30T01:50:27.887Z,21.37
2019-03-30T01:52:55.114Z,20.77
2019-03-30T01:55:22.377Z,22.75
2019-03-30T01:57:49.644Z,25.95
2019-03-30T02:00:17.112Z,26.07
2019-03-30T02:02:44.456Z,25.10
2019-03-30T02:05:11.817Z,23.07
2019-03-30T02:07:39.460Z,24.02
2019-03-30T02:10:08.823Z,22.37
2019-03-30T02:12:36.054Z,23.30
2019-03-30T02:15:03.921Z,23.87
2019-03-30T02:17:31.251Z,25.77
2019-03-30T02:19:58.591Z,25.85
2019-03-30T02:22:25.908Z,26.55
2019-03-30T02:24:53.241Z,25.80
2019-03-30T02:27:20.564Z,26.27
2019-03-30T02:29:47.917Z,29.07
2019-03-30T02:32:15.232Z,26.80
2019-03-30T02:34:42.498Z,25.92
2019-03-30T02:37:09.721Z,23.50
2019-03-30T02:39:37.293Z,21.35
2019-03-30T02:42:04.632Z,22.87
2019-03-30T02:44:31.962Z,22.13
2019-03-30T02:46:59.297Z,21.70
2019-03-30T02:49:26.553Z,21.42
2019-03-30T02:51:53.890Z,21.10
2019-03-30T02:54:21.146Z,25.88
2019-03-30T02:56:48.426Z,23.62
2019-03-30T02:59:15.732Z,23.45
2019-03-30T03:01:43.088Z,24.15
2019-03-30T03:04:10.522Z,23.65
2019-03-30T03:06:37.902Z,23.15
2019-03-30T03:09:07.501Z,24.98
2019-03-30T03:11:34.824Z,23.95
2019-03-30T03:14:02.149Z,22.82
2019-03-30T03:16:29.503Z,22.07
2019-03-30T03:18:56.825Z,22.40
2019-03-30T03:21:24.195Z,23.20
2019-03-30T03:23:51.525Z,24.65
2019-03-30T03:26:18.873Z,24.32
2019-03-30T03:28:46.205Z,23.80
2019-03-30T03:31:13.550Z,27.30
2019-03-30T03:33:40.981Z,24.00
2019-03-30T03:36:08.224Z,24.72
2019-03-30T03:38:35.442Z,23.05
2019-03-30T03:41:03.113Z,25.40
2019-03-30T03:43:30.410Z,27.07
2019-03-30T03:45:57.644Z,29.85
2019-03-30T03:48:24.990Z,30.52
2019-03-30T03:50:59.003Z,27.50
2019-03-30T03:53:26.335Z,28.25
2019-03-30T03:56:16.114Z,25.50
2019-03-30T03:58:46.236Z,24.72
2019-03-30T04:01:16.799Z,26.05
2019-03-30T04:03:46.356Z,26.55
2019-03-30T04:06:15.496Z,27.50
2019-03-30T04:08:44.920Z,22.77
2019-03-30T04:11:14.548Z,24.65
2019-03-30T04:13:45.046Z,22.98
2019-03-30T04:16:12.371Z,22.80
2019-03-30T04:18:39.596Z,23.60
2019-03-30T04:21:06.939Z,28.25
2019-03-30T04:23:34.249Z,26.05
2019-03-30T04:26:01.392Z,26.35
2019-03-30T04:28:28.704Z,27.82
2019-03-30T04:30:55.972Z,25.68
2019-03-30T04:33:23.275Z,27.52
2019-03-30T04:35:50.610Z,26.12
2019-03-30T04:38:17.940Z,26.73
2019-03-30T04:40:45.261Z,28.27
2019-03-30T04:43:12.592Z,28.57
2019-03-30T04:45:39.971Z,25.65
2019-03-30T04:48:07.181Z,29.30
2019-03-30T04:50:34.528Z,29.98
2019-03-30T04:53:01.870Z,33.92
2019-03-30T04:55:29.200Z,35.10
2019-03-30T04:57:57.717Z,34.40
2019-03-30T05:00:25.355Z,33.15
2019-03-30T05:02:52.591Z,30.40
2019-03-30T05:05:19.810Z,36.88
2019-03-30T05:07:47.031Z,38.73
2019-03-30T05:10:14.362Z,34.70
2019-03-30T05:12:41.498Z,35.35
2019-03-30T05:15:08.914Z,33.78
2019-03-30T05:17:46.694Z,38.98
2019-03-30T05:20:05.973Z,38.92
2019-03-30T05:22:33.311Z,38.25
2019-03-30T05:25:00.824Z,35.75
2019-03-30T05:27:28.197Z,33.85
2019-03-30T05:29:55.501Z,33.35
2019-03-30T05:32:22.832Z,34.48
2019-03-30T05:34:50.149Z,31.90
2019-03-30T05:37:17.476Z,31.62
2019-03-30T05:39:45.088Z,30.27
2019-03-30T05:42:12.311Z,29.77
2019-03-30T05:44:39.623Z,28.10
2019-03-30T05:47:06.762Z,27.73
2019-03-30T05:49:34.085Z,27.05
2019-03-30T05:52:01.433Z,29.85
2019-03-30T05:54:28.809Z,27.48
2019-03-30T05:56:55.938Z,27.87
2019-03-30T05:59:23.278Z,26.85
2019-03-30T06:01:51.481Z,27.70
2019-03-30T06:04:18.820Z,25.72
2019-03-30T06:06:46.215Z,25.10
2019-03-30T06:09:13.431Z,24.60
2019-03-30T06:11:40.755Z,25.55
2019-03-30T06:14:07.911Z,26.55
2019-03-30T06:16:35.130Z,25.92
2019-03-30T06:19:02.462Z,24.07
2019-03-30T06:21:29.694Z,20.72
2019-03-30T06:23:57.035Z,25.45
2019-03-30T06:26:24.263Z,20.57
2019-03-30T06:28:51.632Z,20.62
2019-03-30T06:31:18.836Z,19.13
2019-03-30T06:33:46.081Z,20.00
2019-03-30T06:36:13.280Z,19.52
2019-03-30T06:38:40.613Z,20.40
2019-03-30T06:41:07.929Z,20.75
2019-03-30T06:43:35.403Z,21.02
2019-03-30T06:46:02.692Z,22.50
2019-03-30T06:48:30.045Z,17.35
2019-03-30T06:50:57.351Z,17.98
2019-03-30T06:53:24.736Z,14.90
2019-03-30T06:55:52.056Z,15.95
2019-03-30T06:58:19.860Z,16.07
2019-03-30T07:00:47.784Z,14.75
2019-03-30T07:03:15.113Z,16.00
2019-03-30T07:05:43.152Z,15.20
2019-03-30T07:08:31.132Z,15.03
2019-03-30T07:11:01.329Z,15.08
2019-03-30T07:13:31.880Z,14.70
2019-03-30T07:16:00.208Z,14.63
2019-03-30T07:18:28.062Z,14.03
2019-03-30T07:20:55.374Z,14.43
2019-03-30T07:23:22.618Z,14.33
2019-03-30T07:25:49.828Z,14.85
2019-03-30T07:28:17.179Z,14.15
2019-03-30T07:30:44.514Z,14.05
2019-03-30T07:33:11.882Z,14.53
2019-03-30T07:35:39.119Z,14.53
2019-03-30T07:38:06.487Z,14.07
2019-03-30T07:40:34.147Z,13.38
2019-03-30T07:43:02.294Z,14.05
2019-03-30T07:45:29.639Z,14.83
2019-03-30T07:47:57.079Z,13.78
2019-03-30T07:50:24.699Z,14.00
2019-03-30T07:52:52.654Z,14.93
2019-03-30T07:55:20.286Z,15.32
2019-03-30T07:57:47.635Z,14.20
2019-03-30T08:00:15.679Z,14.83
2019-03-30T08:02:43.017Z,14.73
2019-03-30T08:05:10.696Z,14.03
2019-03-30T08:07:38.006Z,14.85
2019-03-30T08:10:05.463Z,14.25
2019-03-30T08:12:32.771Z,15.13
2019-03-30T08:15:00.345Z,15.48
2019-03-30T08:17:27.754Z,14.65
2019-03-30T08:19:54.995Z,14.15
2019-03-30T08:22:22.312Z,15.45
2019-03-30T08:24:49.638Z,15.88
2019-03-30T08:27:16.955Z,14.63
2019-03-30T08:29:44.295Z,14.95
2019-03-30T08:32:11.609Z,15.05
2019-03-30T08:34:38.834Z,15.95
2019-03-30T08:37:06.160Z,15.13
2019-03-30T08:39:33.499Z,15.50
2019-03-30T08:42:01.117Z,14.45
2019-03-30T08:44:28.696Z,14.85
2019-03-30T08:46:56.333Z,14.78
2019-03-30T08:49:23.688Z,15.05
2019-03-30T08:51:51.016Z,15.40
2019-03-30T08:54:18.363Z,15.08
2019-03-30T08:56:45.714Z,14.60
2019-03-30T08:59:12.982Z,15.53
2019-03-30T09:01:40.313Z,14.73
2019-03-30T09:04:07.664Z,15.60
2019-03-30T09:06:35.008Z,15.45
2019-03-30T09:09:04.255Z,15.35
2019-03-30T09:11:31.473Z,14.63
2019-03-30T09:13:58.834Z,15.53
2019-03-30T09:16:26.190Z,15.90
2019-03-30T09:18:53.549Z,15.05
2019-03-30T09:21:20.908Z,14.83
2019-03-30T09:23:48.258Z,15.88
2019-03-30T09:26:16.745Z,15.23
2019-03-30T09:28:44.667Z,16.35
2019-03-30T09:31:12.022Z,16.25
2019-03-30T09:33:39.289Z,15.53
2019-03-30T09:36:06.654Z,16.15
2019-03-30T09:38:33.979Z,16.45
2019-03-30T09:41:01.336Z,15.80
2019-03-30T09:43:28.583Z,15.55
2019-03-30T09:45:55.924Z,16.10
2019-03-30T09:48:23.269Z,15.03
2019-03-30T09:50:50.522Z,15.23
2019-03-30T09:53:17.880Z,14.75
2019-03-30T09:55:45.273Z,15.55
2019-03-30T09:58:12.509Z,14.98
2019-03-30T10:00:40.647Z,15.15
2019-03-30T10:03:07.995Z,15.18
2019-03-30T10:05:35.355Z,15.32
2019-03-30T10:08:02.701Z,15.35
2019-03-30T10:10:30.044Z,14.70
2019-03-30T10:12:57.286Z,14.55
2019-03-30T10:15:24.634Z,15.23
2019-03-30T10:17:51.967Z,15.63
2019-03-30T10:20:19.311Z,15.58
2019-03-30T10:22:46.619Z,14.28
2019-03-30T10:25:13.984Z,14.60
2019-03-30T10:27:41.338Z,14.35
2019-03-30T10:30:11.007Z,15.28
2019-03-30T10:32:38.229Z,14.60
2019-03-30T10:35:05.881Z,14.75
2019-03-30T10:37:33.538Z,14.95
2019-03-30T10:40:00.896Z,14.13
2019-03-30T10:42:28.135Z,14.58
2019-03-30T10:44:55.375Z,14.35
2019-03-30T10:47:22.702Z,14.13
2019-03-30T10:49:50.418Z,13.90
2019-03-30T10:52:17.768Z,14.18
2019-03-30T10:54:52.691Z,14.85
2019-03-30T10:57:14.185Z,13.25
2019-03-30T10:59:41.542Z,13.53
2019-03-30T11:02:08.875Z,13.35
2019-03-30T11:04:37.593Z,13.83
2019-03-30T11:07:05.155Z,14.50
2019-03-30T11:09:32.488Z,13.93
2019-03-30T11:11:59.930Z,13.50
2019-03-30T11:14:27.250Z,13.53
2019-03-30T11:16:54.723Z,13.55
2019-03-30T11:19:22.058Z,14.28
2019-03-30T11:21:49.421Z,14.40
2019-03-30T11:24:16.730Z,13.70
2019-03-30T11:26:44.076Z,13.80
2019-03-30T11:29:11.316Z,13.60
2019-03-30T11:31:38.989Z,13.58
2019-03-30T11:34:06.336Z,11.93
2019-03-30T11:36:33.662Z,12.55
2019-03-30T11:39:00.870Z,12.55
2019-03-30T11:41:28.233Z,12.35
2019-03-30T11:43:55.909Z,12.43
2019-03-30T11:46:23.245Z,11.53
2019-03-30T11:48:50.469Z,12.07
2019-03-30T11:51:17.823Z,12.37
2019-03-30T11:53:45.040Z,12.82
2019-03-30T11:56:12.292Z,12.23
2019-03-30T11:58:39.628Z,12.30
2019-03-30T12:01:06.977Z,12.47
2019-03-30T12:03:34.210Z,12.75
2019-03-30T12:06:01.552Z,14.30
2019-03-30T12:08:28.873Z,14.15
2019-03-30T12:10:56.117Z,13.13
2019-03-30T12:13:23.501Z,12.50
2019-03-30T12:15:50.822Z,13.72
2019-03-30T12:18:18.432Z,12.00
2019-03-30T12:20:45.780Z,13.75
2019-03-30T12:23:13.445Z,12.78
2019-03-30T12:25:40.807Z,12.35
2019-03-30T12:28:08.142Z,9.40
2019-03-30T12:30:35.483Z,9.63
2019-03-30T12:33:03.025Z,8.30
2019-03-30T12:35:30.362Z,7.70
2019-03-30T12:37:57.697Z,8.45
2019-03-30T12:40:25.039Z,7.58
2019-03-30T12:42:52.371Z,7.50
2019-03-30T12:45:19.719Z,9.23
2019-03-30T12:47:47.040Z,7.53
2019-03-30T12:50:14.467Z,7.67
2019-03-30T12:52:41.686Z,8.95
2019-03-30T12:55:09.022Z,10.23
2019-03-30T12:57:36.257Z,11.57
2019-03-30T13:00:04.312Z,11.73
2019-03-30T13:02:31.628Z,10.50
2019-03-30T13:04:58.875Z,9.18
2019-03-30T13:07:26.201Z,11.45
2019-03-30T13:09:53.429Z,9.48
2019-03-30T13:12:20.753Z,8.20
2019-03-30T13:14:47.996Z,8.53
2019-03-30T13:17:15.326Z,7.87
2019-03-30T13:19:43.541Z,8.23
2019-03-30T13:22:10.767Z,6.95
2019-03-30T13:24:38.079Z,7.55
2019-03-30T13:27:05.423Z,7.72
2019-03-30T13:29:33.029Z,8.75
2019-03-30T13:32:00.394Z,8.30
2019-03-30T13:34:27.637Z,8.00
2019-03-30T13:37:06.037Z,8.70
2019-03-30T13:39:33.268Z,8.08
2019-03-30T13:42:00.692Z,9.25
2019-03-30T13:44:28.038Z,8.10
2019-03-30T13:46:55.360Z,8.93
2019-03-30T13:49:22.710Z,8.90
2019-03-30T13:51:50.335Z,8.28
2019-03-30T13:54:17.837Z,8.58
2019-03-30T13:56:45.631Z,8.08
2019-03-30T13:59:12.968Z,8.48
2019-03-30T14:01:40.324Z,9.20
2019-03-30T14:04:08.033Z,9.18
2019-03-30T14:06:36.268Z,8.73
2019-03-30T14:09:05.534Z,8.40
2019-03-30T14:11:32.882Z,7.72
2019-03-30T14:14:00.198Z,8.08
2019-03-30T14:16:27.541Z,8.63
2019-03-30T14:18:54.870Z,8.48
2019-03-30T14:21:22.219Z,9.33
2019-03-30T14:23:50.136Z,8.98
2019-03-30T14:26:30.367Z,8.40
2019-03-30T14:28:46.704Z,8.70
2019-03-30T14:31:13.950Z,7.65
2019-03-30T14:33:41.413Z,7.62
2019-03-30T14:36:08.787Z,7.33
2019-03-30T14:38:36.768Z,8.03
2019-03-30T14:41:06.773Z,6.40
2019-03-30T14:43:34.106Z,6.90
2019-03-30T14:46:01.344Z,7.58
2019-03-30T14:48:28.677Z,8.48
2019-03-30T14:50:56.835Z,7.78
2019-03-30T14:53:24.499Z,7.80
2019-03-30T14:55:51.852Z,7.80
2019-03-30T14:58:19.208Z,8.35
2019-03-30T15:00:47.674Z,8.53
2019-03-30T15:03:14.915Z,8.68
2019-03-30T15:05:42.572Z,9.88
2019-03-30T15:08:09.811Z,8.80
2019-03-30T15:10:37.023Z,9.63
2019-03-30T15:13:04.632Z,8.90
2019-03-30T15:15:32.666Z,9.73
2019-03-30T15:18:00.023Z,9.58
2019-03-30T15:20:27.359Z,10.43
2019-03-30T15:22:54.700Z,9.80
2019-03-30T15:25:22.022Z,11.25
2019-03-30T15:27:49.389Z,10.00
2019-03-30T15:30:16.753Z,10.28
2019-03-30T15:32:44.091Z,11.03
2019-03-30T15:35:11.409Z,10.28
2019-03-30T15:37:38.655Z,10.18
2019-03-30T15:40:06.438Z,10.25
2019-03-30T15:42:33.799Z,11.68
2019-03-30T15:45:01.117Z,10.58
2019-03-30T15:47:28.715Z,11.48
2019-03-30T15:49:56.190Z,11.05
2019-03-30T15:52:25.402Z,11.55
2019-03-30T15:54:52.711Z,11.68
2019-03-30T15:57:20.493Z,12.18
2019-03-30T15:59:48.115Z,11.43
2019-03-30T16:02:15.572Z,12.25
2019-03-30T16:04:42.808Z,12.78
2019-03-30T16:07:10.059Z,12.65
2019-03-30T16:09:37.445Z,12.58
2019-03-30T16:12:04.779Z,12.90
2019-03-30T16:14:34.080Z,12.80
2019-03-30T16:17:01.431Z,13.22
2019-03-30T16:19:28.749Z,13.08
2019-03-30T16:21:56.500Z,13.75
2019-03-30T16:24:45.579Z,13.13
2019-03-30T16:27:27.864Z,13.68
2019-03-30T16:29:42.644Z,13.93
2019-03-30T16:32:09.999Z,13.83
2019-03-30T16:34:37.226Z,14.58
2019-03-30T16:37:04.549Z,14.00
2019-03-30T16:39:34.624Z,15.32
2019-03-30T16:42:01.139Z,14.65
2019-03-30T16:44:28.485Z,14.43
2019-03-30T16:46:57.410Z,13.55
2019-03-30T16:49:24.834Z,15.00
2019-03-30T16:51:52.157Z,14.18
2019-03-30T16:54:19.504Z,14.18
2019-03-30T16:56:46.743Z,14.65
2019-03-30T16:59:14.184Z,14.58
2019-03-30T17:01:41.383Z,14.15
2019-03-30T17:04:08.618Z,15.55
2019-03-30T17:06:35.923Z,15.45
2019-03-30T17:09:04.796Z,15.93
2019-03-30T17:11:32.116Z,17.65
2019-03-30T17:13:59.508Z,15.65
2019-03-30T17:16:26.830Z,16.27
2019-03-30T17:18:54.159Z,15.98
2019-03-30T17:21:21.406Z,16.25
2019-03-30T17:23:48.754Z,15.63
2019-03-30T17:26:15.943Z,16.15
2019-03-30T17:28:43.279Z,16.23
2019-03-30T17:31:10.497Z,16.60
2019-03-30T17:33:37.804Z,15.40
2019-03-30T17:36:05.133Z,16.15
2019-03-30T17:38:32.374Z,15.38
2019-03-30T17:40:59.673Z,18.85
2019-03-30T17:43:27.005Z,17.00
2019-03-30T17:45:54.315Z,15.85
2019-03-30T17:48:21.651Z,15.88
2019-03-30T17:50:48.964Z,16.67
2019-03-30T17:53:17.606Z,16.40
2019-03-30T17:55:48.132Z,17.87
2019-03-30T17:58:15.465Z,17.82
2019-03-30T18:00:42.779Z,16.97
2019-03-30T18:03:10.026Z,16.35
2019-03-30T18:05:37.329Z,16.27
2019-03-30T18:08:06.240Z,16.40
2019-03-30T18:10:33.446Z,19.27
2019-03-30T18:13:02.036Z,18.82
2019-03-30T18:15:29.291Z,18.77
2019-03-30T18:17:57.013Z,19.10
2019-03-30T18:20:37.356Z,19.35
2019-03-30T18:23:04.596Z,19.80
2019-03-30T18:25:31.929Z,18.98
2019-03-30T18:27:59.298Z,17.80
2019-03-30T18:30:37.424Z,18.57
2019-03-30T18:33:04.978Z,17.23
2019-03-30T18:35:32.632Z,16.95
2019-03-30T18:38:00.727Z,16.97
2019-03-30T18:40:29.691Z,19.17
2019-03-30T18:42:57.498Z,17.92
2019-03-30T18:45:25.860Z,17.60
2019-03-30T18:47:59.592Z,18.50
2019-03-30T18:50:26.939Z,18.02
2019-03-30T18:52:54.846Z,17.87
2019-03-30T18:55:22.877Z,17.57
2019-03-30T18:57:50.242Z,20.77
2019-03-30T19:00:25.214Z,15.93
2019-03-30T19:02:52.458Z,14.78
2019-03-30T19:05:19.890Z,15.08
2019-03-30T19:07:47.211Z,15.32
2019-03-30T19:10:14.457Z,16.57
2019-03-30T19:12:41.660Z,15.15
2019-03-30T19:15:09.092Z,14.28
2019-03-30T19:17:36.422Z,16.02
2019-03-30T19:20:04.447Z,15.63
2019-03-30T19:22:31.676Z,16.48
2019-03-30T19:24:59.028Z,13.98
2019-03-30T19:27:26.286Z,14.07
2019-03-30T19:29:53.600Z,15.10
2019-03-30T19:32:20.939Z,17.00
2019-03-30T19:34:48.284Z,15.13
2019-03-30T19:37:15.614Z,17.17
2019-03-30T19:39:42.946Z,14.47
2019-03-30T19:42:10.167Z,15.43
2019-03-30T19:44:37.609Z,19.30
2019-03-30T19:47:04.960Z,14.93
2019-03-30T19:49:33.484Z,18.37
2019-03-30T19:52:20.081Z,16.30
2019-03-30T19:54:47.425Z,17.73
2019-03-30T19:57:14.777Z,20.00
2019-03-30T19:59:42.019Z,17.92
2019-03-30T20:02:09.782Z,18.30
2019-03-30T20:04:37.115Z,19.32
2019-03-30T20:07:04.441Z,17.98
2019-03-30T20:09:31.679Z,18.17
2019-03-30T20:11:58.891Z,17.77
2019-03-30T20:14:26.218Z,19.37
2019-03-30T20:16:53.430Z,21.87
2019-03-30T20:19:20.770Z,27.98
2019-03-30T20:21:48.094Z,29.72
2019-03-30T20:24:15.343Z,26.00
2019-03-30T20:26:42.616Z,23.73
2019-03-30T20:29:24.385Z,23.90
2019-03-30T20:31:39.223Z,25.82
2019-03-30T20:34:06.436Z,24.23
2019-03-30T20:36:35.392Z,23.87
2019-03-30T20:39:22.066Z,25.82
2019-03-30T20:41:49.426Z,27.75
2019-03-30T20:44:16.732Z,26.57
2019-03-30T20:46:44.060Z,27.27
2019-03-30T20:49:11.565Z,26.65
2019-03-30T20:51:38.796Z,27.67
2019-03-30T20:54:06.219Z,25.48
2019-03-30T20:56:33.530Z,27.30
2019-03-30T20:59:00.755Z,25.62
2019-03-30T21:01:28.076Z,25.37
2019-03-30T21:03:55.403Z,26.42
2019-03-30T21:06:22.658Z,25.80
2019-03-30T21:08:49.886Z,26.48
2019-03-30T21:11:17.103Z,27.52
2019-03-30T21:13:44.311Z,26.97
2019-03-30T21:16:11.521Z,25.05
2019-03-30T21:18:38.724Z,23.98
2019-03-30T21:21:08.995Z,25.25
2019-03-30T21:23:35.071Z,25.85
2019-03-30T21:26:02.396Z,25.12
2019-03-30T21:28:29.589Z,26.35
2019-03-30T21:30:56.932Z,25.27
2019-03-30T21:33:24.239Z,25.27
2019-03-30T21:35:51.460Z,26.42
2019-03-30T21:38:18.790Z,24.77
2019-03-30T21:40:46.121Z,24.87
2019-03-30T21:43:13.337Z,25.72
2019-03-30T21:45:40.687Z,25.08
2019-03-30T21:48:07.998Z,26.52
2019-03-30T21:50:35.333Z,25.82
2019-03-30T21:53:02.744Z,26.12
2019-03-30T21:55:29.987Z,25.95
2019-03-30T21:57:57.751Z,26.02
2019-03-30T22:00:33.312Z,26.62
2019-03-30T22:03:00.555Z,27.73
2019-03-30T22:05:28.066Z,26.93
2019-03-30T22:07:55.914Z,27.93
2019-03-30T22:10:27.079Z,26.23
2019-03-30T22:12:54.406Z,25.90
2019-03-30T22:15:26.040Z,26.73
2019-03-30T22:17:53.288Z,27.73
2019-03-30T22:20:21.425Z,28.27
2019-03-30T22:22:48.844Z,27.07
2019-03-30T22:25:16.171Z,29.32
2019-03-30T22:27:43.490Z,29.90
2019-03-30T22:30:24.208Z,27.67
2019-03-30T22:32:40.254Z,27.70
2019-03-30T22:35:07.684Z,28.98
2019-03-30T22:37:34.910Z,28.92
2019-03-30T22:40:02.433Z,29.95
2019-03-30T22:42:29.758Z,28.98
2019-03-30T22:44:56.964Z,28.67
2019-03-30T22:47:24.206Z,29.98
2019-03-30T22:49:51.841Z,30.08
2019-03-30T22:52:20.449Z,27.75
2019-03-30T22:54:48.381Z,29.55
2019-03-30T22:57:15.532Z,28.20
2019-03-30T22:59:42.864Z,28.32
2019-03-30T23:02:10.229Z,28.52
2019-03-30T23:04:37.662Z,29.55
2019-03-30T23:07:04.986Z,29.05
2019-03-30T23:09:32.291Z,29.92
2019-03-30T23:11:59.520Z,29.35
2019-03-30T23:14:26.757Z,28.25
2019-03-30T23:16:54.087Z,26.95
2019-03-30T23:19:21.512Z,26.95
2019-03-30T23:21:48.857Z,27.13
2019-03-30T23:24:16.068Z,28.32
2019-03-30T23:26:43.399Z,29.02
2019-03-30T23:29:10.709Z,28.57
2019-03-30T23:31:37.940Z,28.87
2019-03-30T23:34:05.246Z,29.25
2019-03-30T23:36:32.446Z,30.08
2019-03-30T23:38:59.784Z,28.57
2019-03-30T23:41:27.100Z,30.30
2019-03-30T23:43:54.438Z,30.88
2019-03-30T23:46:21.765Z,30.15
2019-03-30T23:48:49.005Z,29.92
2019-03-30T23:51:18.387Z,30.90
2019-03-30T23:53:45.628Z,29.40
2019-03-30T23:56:20.489Z,31.37
2019-03-30T23:58:47.843Z,30.27
